sensor_id;sensor_type;location;lat;lon;timestamp;P1;durP1;ratioP1;P2;durP2;ratioP2
24745;SDS011;12845;52.042;6.838;2022-11-20T00:01:16;38.10;;;26.05;;
24745;SDS011;12845;52.042;6.838;2022-11-20T00:03:44;38.15;;;27.08;;
24745;SDS011;12845;52.042;6.838;2022-11-20T00:06:11;42.63;;;28.58;;
24745;SDS011;12845;52.042;6.838;2022-11-20T00:08:38;36.80;;;25.55;;
24745;SDS011;12845;52.042;6.838;2022-11-20T00:13:29;42.00;;;29.90;;
24745;SDS011;12845;52.042;6.838;2022-11-20T00:15:58;61.92;;;45.08;;
24745;SDS011;12845;52.042;6.838;2022-11-20T00:18:24;39.08;;;24.75;;
24745;SDS011;12845;52.042;6.838;2022-11-20T00:20:50;38.00;;;26.63;;
24745;SDS011;12845;52.042;6.838;2022-11-20T00:23:15;39.38;;;26.05;;
24745;SDS011;12845;52.042;6.838;2022-11-20T00:25:41;36.85;;;25.65;;
24745;SDS011;12845;52.042;6.838;2022-11-20T00:28:06;40.15;;;26.23;;
24745;SDS011;12845;52.042;6.838;2022-11-20T00:30:31;39.20;;;26.83;;
24745;SDS011;12845;52.042;6.838;2022-11-20T00:32:57;42.25;;;30.38;;
24745;SDS011;12845;52.042;6.838;2022-11-20T00:35:22;42.05;;;30.55;;
24745;SDS011;12845;52.042;6.838;2022-11-20T00:37:48;42.42;;;29.48;;
24745;SDS011;12845;52.042;6.838;2022-11-20T00:40:13;33.40;;;24.85;;
24745;SDS011;12845;52.042;6.838;2022-11-20T00:42:39;34.38;;;23.20;;
24745;SDS011;12845;52.042;6.838;2022-11-20T00:45:04;36.72;;;23.08;;
24745;SDS011;12845;52.042;6.838;2022-11-20T00:47:32;35.95;;;24.23;;
24745;SDS011;12845;52.042;6.838;2022-11-20T00:49:57;33.53;;;23.45;;
24745;SDS011;12845;52.042;6.838;2022-11-20T00:52:22;31.48;;;22.92;;
24745;SDS011;12845;52.042;6.838;2022-11-20T00:54:48;35.17;;;23.15;;
24745;SDS011;12845;52.042;6.838;2022-11-20T00:57:13;36.22;;;22.58;;
24745;SDS011;12845;52.042;6.838;2022-11-20T00:59:38;34.75;;;23.17;;
24745;SDS011;12845;52.042;6.838;2022-11-20T01:02:04;32.30;;;22.60;;
24745;SDS011;12845;52.042;6.838;2022-11-20T01:04:29;37.30;;;24.17;;
24745;SDS011;12845;52.042;6.838;2022-11-20T01:06:54;35.35;;;24.45;;
24745;SDS011;12845;52.042;6.838;2022-11-20T01:09:20;37.03;;;24.98;;
24745;SDS011;12845;52.042;6.838;2022-11-20T01:11:45;35.60;;;23.08;;
24745;SDS011;12845;52.042;6.838;2022-11-20T01:14:15;31.10;;;22.23;;
24745;SDS011;12845;52.042;6.838;2022-11-20T01:16:49;34.75;;;24.30;;
24745;SDS011;12845;52.042;6.838;2022-11-20T01:19:22;36.00;;;24.50;;
24745;SDS011;12845;52.042;6.838;2022-11-20T01:21:49;34.20;;;22.60;;
24745;SDS011;12845;52.042;6.838;2022-11-20T01:24:16;34.30;;;23.73;;
24745;SDS011;12845;52.042;6.838;2022-11-20T01:26:44;33.90;;;21.33;;
24745;SDS011;12845;52.042;6.838;2022-11-20T01:29:12;33.60;;;21.23;;
24745;SDS011;12845;52.042;6.838;2022-11-20T01:31:40;32.65;;;20.33;;
24745;SDS011;12845;52.042;6.838;2022-11-20T01:34:08;32.40;;;22.65;;
24745;SDS011;12845;52.042;6.838;2022-11-20T01:36:36;32.53;;;22.27;;
24745;SDS011;12845;52.042;6.838;2022-11-20T01:39:04;30.63;;;22.10;;
24745;SDS011;12845;52.042;6.838;2022-11-20T01:41:35;30.77;;;20.55;;
24745;SDS011;12845;52.042;6.838;2022-11-20T01:44:21;30.33;;;20.38;;
24745;SDS011;12845;52.042;6.838;2022-11-20T01:47:06;32.72;;;21.70;;
24745;SDS011;12845;52.042;6.838;2022-11-20T01:49:34;32.03;;;21.42;;
24745;SDS011;12845;52.042;6.838;2022-11-20T01:52:10;30.55;;;21.83;;
24745;SDS011;12845;52.042;6.838;2022-11-20T01:54:42;33.50;;;22.60;;
24745;SDS011;12845;52.042;6.838;2022-11-20T01:57:16;31.83;;;22.35;;
24745;SDS011;12845;52.042;6.838;2022-11-20T01:59:45;32.15;;;21.25;;
24745;SDS011;12845;52.042;6.838;2022-11-20T02:02:19;34.70;;;23.75;;
24745;SDS011;12845;52.042;6.838;2022-11-20T02:04:46;32.28;;;20.30;;
24745;SDS011;12845;52.042;6.838;2022-11-20T02:07:12;33.03;;;22.73;;
24745;SDS011;12845;52.042;6.838;2022-11-20T02:09:39;34.20;;;22.75;;
24745;SDS011;12845;52.042;6.838;2022-11-20T02:12:04;33.28;;;22.52;;
24745;SDS011;12845;52.042;6.838;2022-11-20T02:14:30;33.90;;;22.98;;
24745;SDS011;12845;52.042;6.838;2022-11-20T02:16:56;32.50;;;22.48;;
24745;SDS011;12845;52.042;6.838;2022-11-20T02:19:26;33.53;;;22.98;;
24745;SDS011;12845;52.042;6.838;2022-11-20T02:24:32;32.92;;;22.42;;
24745;SDS011;12845;52.042;6.838;2022-11-20T02:26:59;34.90;;;24.13;;
24745;SDS011;12845;52.042;6.838;2022-11-20T02:29:51;31.88;;;22.23;;
24745;SDS011;12845;52.042;6.838;2022-11-20T02:32:27;32.70;;;21.67;;
24745;SDS011;12845;52.042;6.838;2022-11-20T02:35:35;32.17;;;22.13;;
24745;SDS011;12845;52.042;6.838;2022-11-20T02:37:55;36.67;;;23.17;;
24745;SDS011;12845;52.042;6.838;2022-11-20T02:40:23;33.72;;;22.42;;
24745;SDS011;12845;52.042;6.838;2022-11-20T02:42:51;32.28;;;21.60;;
24745;SDS011;12845;52.042;6.838;2022-11-20T02:45:18;32.72;;;22.27;;
24745;SDS011;12845;52.042;6.838;2022-11-20T02:47:43;32.97;;;21.42;;
24745;SDS011;12845;52.042;6.838;2022-11-20T02:50:09;31.90;;;20.92;;
24745;SDS011;12845;52.042;6.838;2022-11-20T02:52:34;34.85;;;23.27;;
24745;SDS011;12845;52.042;6.838;2022-11-20T02:54:59;30.42;;;20.88;;
24745;SDS011;12845;52.042;6.838;2022-11-20T02:57:25;30.77;;;21.55;;
24745;SDS011;12845;52.042;6.838;2022-11-20T02:59:51;31.75;;;21.33;;
24745;SDS011;12845;52.042;6.838;2022-11-20T03:02:16;33.90;;;23.38;;
24745;SDS011;12845;52.042;6.838;2022-11-20T03:04:42;32.30;;;22.38;;
24745;SDS011;12845;52.042;6.838;2022-11-20T03:07:07;31.90;;;22.05;;
24745;SDS011;12845;52.042;6.838;2022-11-20T03:09:33;32.30;;;22.42;;
24745;SDS011;12845;52.042;6.838;2022-11-20T03:11:59;33.65;;;22.23;;
24745;SDS011;12845;52.042;6.838;2022-11-20T03:14:24;34.90;;;23.15;;
24745;SDS011;12845;52.042;6.838;2022-11-20T03:16:49;31.67;;;20.70;;
24745;SDS011;12845;52.042;6.838;2022-11-20T03:19:15;32.58;;;21.95;;
24745;SDS011;12845;52.042;6.838;2022-11-20T03:21:40;33.22;;;23.02;;
24745;SDS011;12845;52.042;6.838;2022-11-20T03:24:06;31.85;;;20.50;;
24745;SDS011;12845;52.042;6.838;2022-11-20T03:26:32;32.05;;;21.73;;
24745;SDS011;12845;52.042;6.838;2022-11-20T03:28:58;33.00;;;21.52;;
24745;SDS011;12845;52.042;6.838;2022-11-20T03:31:26;33.10;;;21.85;;
24745;SDS011;12845;52.042;6.838;2022-11-20T03:33:53;35.03;;;23.02;;
24745;SDS011;12845;52.042;6.838;2022-11-20T03:36:20;32.25;;;19.90;;
24745;SDS011;12845;52.042;6.838;2022-11-20T03:38:46;28.75;;;20.55;;
24745;SDS011;12845;52.042;6.838;2022-11-20T03:41:13;31.17;;;21.73;;
24745;SDS011;12845;52.042;6.838;2022-11-20T03:43:41;32.85;;;21.83;;
24745;SDS011;12845;52.042;6.838;2022-11-20T03:46:06;33.65;;;22.20;;
24745;SDS011;12845;52.042;6.838;2022-11-20T03:48:32;31.58;;;21.13;;
24745;SDS011;12845;52.042;6.838;2022-11-20T03:51:09;33.20;;;22.10;;
24745;SDS011;12845;52.042;6.838;2022-11-20T03:53:36;32.17;;;21.65;;
24745;SDS011;12845;52.042;6.838;2022-11-20T03:56:01;33.42;;;21.73;;
24745;SDS011;12845;52.042;6.838;2022-11-20T03:58:26;32.58;;;21.60;;
24745;SDS011;12845;52.042;6.838;2022-11-20T04:00:52;30.23;;;22.00;;
24745;SDS011;12845;52.042;6.838;2022-11-20T04:03:17;30.23;;;21.30;;
24745;SDS011;12845;52.042;6.838;2022-11-20T04:05:42;28.90;;;21.00;;
24745;SDS011;12845;52.042;6.838;2022-11-20T04:08:08;29.73;;;20.90;;
24745;SDS011;12845;52.042;6.838;2022-11-20T04:10:34;29.25;;;19.48;;
24745;SDS011;12845;52.042;6.838;2022-11-20T04:12:59;30.42;;;21.15;;
24745;SDS011;12845;52.042;6.838;2022-11-20T04:15:24;30.63;;;22.25;;
24745;SDS011;12845;52.042;6.838;2022-11-20T04:17:50;30.75;;;21.20;;
24745;SDS011;12845;52.042;6.838;2022-11-20T04:20:15;31.13;;;22.05;;
24745;SDS011;12845;52.042;6.838;2022-11-20T04:22:41;31.20;;;20.80;;
24745;SDS011;12845;52.042;6.838;2022-11-20T04:25:06;29.88;;;21.05;;
24745;SDS011;12845;52.042;6.838;2022-11-20T04:27:32;30.10;;;20.45;;
24745;SDS011;12845;52.042;6.838;2022-11-20T04:29:57;29.52;;;20.52;;
24745;SDS011;12845;52.042;6.838;2022-11-20T04:32:22;28.67;;;18.45;;
24745;SDS011;12845;52.042;6.838;2022-11-20T04:34:48;31.88;;;21.67;;
24745;SDS011;12845;52.042;6.838;2022-11-20T04:37:13;33.60;;;21.95;;
24745;SDS011;12845;52.042;6.838;2022-11-20T04:39:38;31.33;;;20.98;;
24745;SDS011;12845;52.042;6.838;2022-11-20T04:42:04;28.42;;;18.35;;
24745;SDS011;12845;52.042;6.838;2022-11-20T04:44:48;31.17;;;20.42;;
24745;SDS011;12845;52.042;6.838;2022-11-20T04:47:13;30.98;;;20.40;;
24745;SDS011;12845;52.042;6.838;2022-11-20T04:49:38;30.92;;;19.45;;
24745;SDS011;12845;52.042;6.838;2022-11-20T04:52:04;28.90;;;21.17;;
24745;SDS011;12845;52.042;6.838;2022-11-20T04:54:29;30.65;;;22.38;;
24745;SDS011;12845;52.042;6.838;2022-11-20T04:56:54;26.70;;;20.38;;
24745;SDS011;12845;52.042;6.838;2022-11-20T04:59:20;28.02;;;20.58;;
24745;SDS011;12845;52.042;6.838;2022-11-20T05:01:45;32.30;;;20.63;;
24745;SDS011;12845;52.042;6.838;2022-11-20T05:04:10;29.55;;;20.23;;
24745;SDS011;12845;52.042;6.838;2022-11-20T05:06:36;31.60;;;21.48;;
24745;SDS011;12845;52.042;6.838;2022-11-20T05:09:01;33.22;;;20.58;;
24745;SDS011;12845;52.042;6.838;2022-11-20T05:11:27;43.53;;;26.52;;
24745;SDS011;12845;52.042;6.838;2022-11-20T05:13:54;38.85;;;23.30;;
24745;SDS011;12845;52.042;6.838;2022-11-20T05:16:20;32.45;;;20.65;;
24745;SDS011;12845;52.042;6.838;2022-11-20T05:18:48;30.52;;;20.42;;
24745;SDS011;12845;52.042;6.838;2022-11-20T05:21:15;31.65;;;20.98;;
24745;SDS011;12845;52.042;6.838;2022-11-20T05:23:41;31.65;;;22.52;;
24745;SDS011;12845;52.042;6.838;2022-11-20T05:26:08;30.63;;;21.08;;
24745;SDS011;12845;52.042;6.838;2022-11-20T05:28:37;32.15;;;22.88;;
24745;SDS011;12845;52.042;6.838;2022-11-20T05:33:31;29.13;;;21.02;;
24745;SDS011;12845;52.042;6.838;2022-11-20T05:35:57;29.15;;;21.05;;
24745;SDS011;12845;52.042;6.838;2022-11-20T05:38:23;30.63;;;20.75;;
24745;SDS011;12845;52.042;6.838;2022-11-20T05:40:49;31.90;;;20.27;;
24745;SDS011;12845;52.042;6.838;2022-11-20T05:43:14;30.52;;;21.27;;
24745;SDS011;12845;52.042;6.838;2022-11-20T05:45:39;33.00;;;21.15;;
24745;SDS011;12845;52.042;6.838;2022-11-20T05:48:05;27.48;;;19.00;;
24745;SDS011;12845;52.042;6.838;2022-11-20T05:50:30;28.67;;;19.23;;
24745;SDS011;12845;52.042;6.838;2022-11-20T05:52:57;30.08;;;20.70;;
24745;SDS011;12845;52.042;6.838;2022-11-20T05:55:24;28.40;;;21.48;;
24745;SDS011;12845;52.042;6.838;2022-11-20T05:57:49;27.55;;;19.20;;
24745;SDS011;12845;52.042;6.838;2022-11-20T06:00:15;29.10;;;19.88;;
24745;SDS011;12845;52.042;6.838;2022-11-20T06:02:40;30.92;;;20.40;;
24745;SDS011;12845;52.042;6.838;2022-11-20T06:05:06;30.38;;;22.02;;
24745;SDS011;12845;52.042;6.838;2022-11-20T06:07:31;36.85;;;24.35;;
24745;SDS011;12845;52.042;6.838;2022-11-20T06:09:57;34.25;;;23.45;;
24745;SDS011;12845;52.042;6.838;2022-11-20T06:12:22;40.40;;;25.15;;
24745;SDS011;12845;52.042;6.838;2022-11-20T06:14:47;37.53;;;24.88;;
24745;SDS011;12845;52.042;6.838;2022-11-20T06:17:13;34.28;;;24.48;;
24745;SDS011;12845;52.042;6.838;2022-11-20T06:19:38;35.88;;;24.20;;
24745;SDS011;12845;52.042;6.838;2022-11-20T06:22:03;32.92;;;21.98;;
24745;SDS011;12845;52.042;6.838;2022-11-20T06:24:29;35.22;;;23.23;;
24745;SDS011;12845;52.042;6.838;2022-11-20T06:26:54;40.72;;;25.40;;
24745;SDS011;12845;52.042;6.838;2022-11-20T06:29:19;59.42;;;32.45;;
24745;SDS011;12845;52.042;6.838;2022-11-20T06:31:45;35.53;;;23.15;;
24745;SDS011;12845;52.042;6.838;2022-11-20T06:34:10;31.73;;;20.65;;
24745;SDS011;12845;52.042;6.838;2022-11-20T06:36:36;29.48;;;19.65;;
24745;SDS011;12845;52.042;6.838;2022-11-20T06:39:01;31.48;;;21.65;;
24745;SDS011;12845;52.042;6.838;2022-11-20T06:41:27;31.83;;;21.85;;
24745;SDS011;12845;52.042;6.838;2022-11-20T06:43:53;32.55;;;20.52;;
24745;SDS011;12845;52.042;6.838;2022-11-20T06:46:18;28.90;;;20.15;;
24745;SDS011;12845;52.042;6.838;2022-11-20T06:48:45;32.53;;;19.88;;
24745;SDS011;12845;52.042;6.838;2022-11-20T06:51:11;30.08;;;20.75;;
24745;SDS011;12845;52.042;6.838;2022-11-20T06:53:37;35.13;;;22.83;;
24745;SDS011;12845;52.042;6.838;2022-11-20T06:56:05;34.00;;;21.50;;
24745;SDS011;12845;52.042;6.838;2022-11-20T06:58:31;31.93;;;22.07;;
24745;SDS011;12845;52.042;6.838;2022-11-20T07:00:59;33.55;;;22.75;;
24745;SDS011;12845;52.042;6.838;2022-11-20T07:03:29;34.22;;;21.55;;
24745;SDS011;12845;52.042;6.838;2022-11-20T07:05:55;34.60;;;22.60;;
24745;SDS011;12845;52.042;6.838;2022-11-20T07:08:21;32.67;;;23.52;;
24745;SDS011;12845;52.042;6.838;2022-11-20T07:10:47;35.60;;;23.95;;
24745;SDS011;12845;52.042;6.838;2022-11-20T07:13:12;32.88;;;21.27;;
24745;SDS011;12845;52.042;6.838;2022-11-20T07:15:37;36.97;;;24.98;;
24745;SDS011;12845;52.042;6.838;2022-11-20T07:18:03;37.05;;;23.80;;
24745;SDS011;12845;52.042;6.838;2022-11-20T07:20:28;37.25;;;25.50;;
24745;SDS011;12845;52.042;6.838;2022-11-20T07:22:54;38.38;;;24.58;;
24745;SDS011;12845;52.042;6.838;2022-11-20T07:25:21;36.33;;;24.25;;
24745;SDS011;12845;52.042;6.838;2022-11-20T07:27:47;38.17;;;23.63;;
24745;SDS011;12845;52.042;6.838;2022-11-20T07:30:13;40.22;;;28.05;;
24745;SDS011;12845;52.042;6.838;2022-11-20T07:32:39;40.03;;;26.30;;
24745;SDS011;12845;52.042;6.838;2022-11-20T07:35:04;33.20;;;22.85;;
24745;SDS011;12845;52.042;6.838;2022-11-20T07:37:30;36.47;;;24.70;;
24745;SDS011;12845;52.042;6.838;2022-11-20T07:39:55;34.45;;;23.05;;
24745;SDS011;12845;52.042;6.838;2022-11-20T07:42:20;34.63;;;21.92;;
24745;SDS011;12845;52.042;6.838;2022-11-20T07:44:46;41.13;;;24.63;;
24745;SDS011;12845;52.042;6.838;2022-11-20T07:47:14;49.75;;;30.63;;
24745;SDS011;12845;52.042;6.838;2022-11-20T07:49:39;42.80;;;28.20;;
24745;SDS011;12845;52.042;6.838;2022-11-20T07:52:04;41.80;;;28.13;;
24745;SDS011;12845;52.042;6.838;2022-11-20T07:54:30;38.63;;;27.35;;
24745;SDS011;12845;52.042;6.838;2022-11-20T07:56:55;37.50;;;26.92;;
24745;SDS011;12845;52.042;6.838;2022-11-20T07:59:20;40.28;;;28.05;;
24745;SDS011;12845;52.042;6.838;2022-11-20T08:01:46;39.30;;;26.90;;
24745;SDS011;12845;52.042;6.838;2022-11-20T08:04:11;34.83;;;24.80;;
24745;SDS011;12845;52.042;6.838;2022-11-20T08:06:36;37.83;;;25.05;;
24745;SDS011;12845;52.042;6.838;2022-11-20T08:09:02;34.25;;;20.88;;
24745;SDS011;12845;52.042;6.838;2022-11-20T08:11:27;37.13;;;25.95;;
24745;SDS011;12845;52.042;6.838;2022-11-20T08:14:11;35.17;;;23.38;;
24745;SDS011;12845;52.042;6.838;2022-11-20T08:16:40;38.60;;;24.58;;
24745;SDS011;12845;52.042;6.838;2022-11-20T08:19:07;36.85;;;27.00;;
24745;SDS011;12845;52.042;6.838;2022-11-20T08:21:33;34.92;;;22.80;;
24745;SDS011;12845;52.042;6.838;2022-11-20T08:23:58;38.53;;;24.00;;
24745;SDS011;12845;52.042;6.838;2022-11-20T08:26:24;37.88;;;25.02;;
24745;SDS011;12845;52.042;6.838;2022-11-20T08:28:53;36.22;;;22.73;;
24745;SDS011;12845;52.042;6.838;2022-11-20T08:31:20;37.90;;;27.75;;
24745;SDS011;12845;52.042;6.838;2022-11-20T08:33:45;40.00;;;24.90;;
24745;SDS011;12845;52.042;6.838;2022-11-20T08:36:11;40.03;;;24.58;;
24745;SDS011;12845;52.042;6.838;2022-11-20T08:38:36;41.47;;;26.50;;
24745;SDS011;12845;52.042;6.838;2022-11-20T08:41:02;41.78;;;24.00;;
24745;SDS011;12845;52.042;6.838;2022-11-20T08:43:47;38.38;;;22.80;;
24745;SDS011;12845;52.042;6.838;2022-11-20T08:46:12;38.38;;;25.55;;
24745;SDS011;12845;52.042;6.838;2022-11-20T08:48:38;42.33;;;24.30;;
24745;SDS011;12845;52.042;6.838;2022-11-20T08:51:04;46.08;;;30.58;;
24745;SDS011;12845;52.042;6.838;2022-11-20T08:53:29;41.55;;;24.33;;
24745;SDS011;12845;52.042;6.838;2022-11-20T08:55:56;45.72;;;29.73;;
24745;SDS011;12845;52.042;6.838;2022-11-20T08:58:21;45.25;;;26.05;;
24745;SDS011;12845;52.042;6.838;2022-11-20T09:00:47;40.40;;;26.92;;
24745;SDS011;12845;52.042;6.838;2022-11-20T09:03:12;44.97;;;25.23;;
24745;SDS011;12845;52.042;6.838;2022-11-20T09:05:38;45.40;;;28.95;;
24745;SDS011;12845;52.042;6.838;2022-11-20T09:08:04;46.90;;;28.20;;
24745;SDS011;12845;52.042;6.838;2022-11-20T09:10:30;46.20;;;31.20;;
24745;SDS011;12845;52.042;6.838;2022-11-20T09:12:55;46.75;;;30.85;;
24745;SDS011;12845;52.042;6.838;2022-11-20T09:15:21;43.78;;;28.70;;
24745;SDS011;12845;52.042;6.838;2022-11-20T09:17:51;45.45;;;30.55;;
24745;SDS011;12845;52.042;6.838;2022-11-20T09:20:25;45.03;;;27.38;;
24745;SDS011;12845;52.042;6.838;2022-11-20T09:22:51;45.08;;;29.27;;
24745;SDS011;12845;52.042;6.838;2022-11-20T09:25:17;43.60;;;28.08;;
24745;SDS011;12845;52.042;6.838;2022-11-20T09:27:42;47.22;;;29.90;;
24745;SDS011;12845;52.042;6.838;2022-11-20T09:30:08;45.22;;;28.35;;
24745;SDS011;12845;52.042;6.838;2022-11-20T09:32:34;45.50;;;29.15;;
24745;SDS011;12845;52.042;6.838;2022-11-20T09:35:00;49.03;;;30.02;;
24745;SDS011;12845;52.042;6.838;2022-11-20T09:37:26;45.95;;;29.85;;
24745;SDS011;12845;52.042;6.838;2022-11-20T09:39:51;43.85;;;25.30;;
24745;SDS011;12845;52.042;6.838;2022-11-20T09:42:21;45.38;;;32.80;;
24745;SDS011;12845;52.042;6.838;2022-11-20T09:45:10;42.75;;;30.33;;
24745;SDS011;12845;52.042;6.838;2022-11-20T09:48:01;47.70;;;33.03;;
24745;SDS011;12845;52.042;6.838;2022-11-20T09:51:05;43.60;;;29.45;;
24745;SDS011;12845;52.042;6.838;2022-11-20T09:56:25;36.67;;;22.05;;
24745;SDS011;12845;52.042;6.838;2022-11-20T09:58:51;36.08;;;25.50;;
24745;SDS011;12845;52.042;6.838;2022-11-20T10:01:20;33.83;;;21.10;;
24745;SDS011;12845;52.042;6.838;2022-11-20T10:03:53;37.15;;;26.00;;
24745;SDS011;12845;52.042;6.838;2022-11-20T10:06:21;39.28;;;23.55;;
24745;SDS011;12845;52.042;6.838;2022-11-20T10:09:01;34.22;;;24.40;;
24745;SDS011;12845;52.042;6.838;2022-11-20T10:25:38;27.38;;;18.83;;
24745;SDS011;12845;52.042;6.838;2022-11-20T10:31:04;28.00;;;18.00;;
24745;SDS011;12845;52.042;6.838;2022-11-20T10:33:38;32.40;;;20.48;;
24745;SDS011;12845;52.042;6.838;2022-11-20T10:36:14;30.17;;;19.75;;
24745;SDS011;12845;52.042;6.838;2022-11-20T10:38:55;29.33;;;19.02;;
24745;SDS011;12845;52.042;6.838;2022-11-20T10:41:30;29.45;;;20.40;;
24745;SDS011;12845;52.042;6.838;2022-11-20T10:46:35;29.52;;;19.70;;
24745;SDS011;12845;52.042;6.838;2022-11-20T10:49:15;29.20;;;19.27;;
24745;SDS011;12845;52.042;6.838;2022-11-20T11:02:43;25.77;;;16.45;;
24745;SDS011;12845;52.042;6.838;2022-11-20T11:05:35;25.38;;;17.00;;
24745;SDS011;12845;52.042;6.838;2022-11-20T11:08:15;26.35;;;18.15;;
24745;SDS011;12845;52.042;6.838;2022-11-20T11:11:00;26.98;;;18.05;;
24745;SDS011;12845;52.042;6.838;2022-11-20T11:13:28;28.08;;;18.40;;
24745;SDS011;12845;52.042;6.838;2022-11-20T11:15:55;26.33;;;18.30;;
24745;SDS011;12845;52.042;6.838;2022-11-20T11:18:25;25.88;;;16.35;;
24745;SDS011;12845;52.042;6.838;2022-11-20T11:20:52;26.58;;;15.63;;
24745;SDS011;12845;52.042;6.838;2022-11-20T11:23:35;25.05;;;18.13;;
24745;SDS011;12845;52.042;6.838;2022-11-20T11:26:04;23.88;;;15.18;;
24745;SDS011;12845;52.042;6.838;2022-11-20T11:28:31;27.53;;;18.53;;
24745;SDS011;12845;52.042;6.838;2022-11-20T11:30:57;22.60;;;14.15;;
24745;SDS011;12845;52.042;6.838;2022-11-20T11:35:50;21.33;;;14.18;;
24745;SDS011;12845;52.042;6.838;2022-11-20T11:38:34;24.42;;;17.52;;
24745;SDS011;12845;52.042;6.838;2022-11-20T11:41:00;24.02;;;14.13;;
24745;SDS011;12845;52.042;6.838;2022-11-20T11:43:28;21.10;;;14.55;;
24745;SDS011;12845;52.042;6.838;2022-11-20T11:49:08;25.13;;;16.42;;
24745;SDS011;12845;52.042;6.838;2022-11-20T12:04:50;25.23;;;16.92;;
24745;SDS011;12845;52.042;6.838;2022-11-20T12:15:34;25.23;;;15.85;;
24745;SDS011;12845;52.042;6.838;2022-11-20T12:18:13;28.05;;;18.38;;
24745;SDS011;12845;52.042;6.838;2022-11-20T12:20:41;26.58;;;18.55;;
24745;SDS011;12845;52.042;6.838;2022-11-20T12:23:39;26.77;;;19.55;;
24745;SDS011;12845;52.042;6.838;2022-11-20T12:34:50;24.27;;;17.50;;
24745;SDS011;12845;52.042;6.838;2022-11-20T12:39:35;25.17;;;16.48;;
24745;SDS011;12845;52.042;6.838;2022-11-20T12:54:26;25.73;;;17.33;;
24745;SDS011;12845;52.042;6.838;2022-11-20T12:56:56;24.17;;;16.65;;
24745;SDS011;12845;52.042;6.838;2022-11-20T12:59:50;26.17;;;18.77;;
24745;SDS011;12845;52.042;6.838;2022-11-20T13:05:43;24.98;;;17.55;;
24745;SDS011;12845;52.042;6.838;2022-11-20T13:08:38;29.15;;;20.42;;
24745;SDS011;12845;52.042;6.838;2022-11-20T13:13:59;28.45;;;19.13;;
24745;SDS011;12845;52.042;6.838;2022-11-20T13:16:50;29.17;;;17.55;;
24745;SDS011;12845;52.042;6.838;2022-11-20T13:19:34;24.00;;;14.98;;
24745;SDS011;12845;52.042;6.838;2022-11-20T13:22:00;28.50;;;18.35;;
24745;SDS011;12845;52.042;6.838;2022-11-20T13:24:27;27.88;;;18.38;;
24745;SDS011;12845;52.042;6.838;2022-11-20T13:29:29;29.17;;;17.95;;
24745;SDS011;12845;52.042;6.838;2022-11-20T13:34:51;33.30;;;19.98;;
24745;SDS011;12845;52.042;6.838;2022-11-20T13:37:58;31.15;;;18.75;;
24745;SDS011;12845;52.042;6.838;2022-11-20T13:42:35;33.25;;;21.50;;
24745;SDS011;12845;52.042;6.838;2022-11-20T13:45:09;34.88;;;23.38;;
24745;SDS011;12845;52.042;6.838;2022-11-20T13:47:36;33.72;;;21.33;;
24745;SDS011;12845;52.042;6.838;2022-11-20T13:50:02;38.60;;;19.92;;
24745;SDS011;12845;52.042;6.838;2022-11-20T14:00:19;31.60;;;21.48;;
24745;SDS011;12845;52.042;6.838;2022-11-20T14:02:57;32.90;;;23.13;;
24745;SDS011;12845;52.042;6.838;2022-11-20T14:05:34;33.33;;;21.52;;
24745;SDS011;12845;52.042;6.838;2022-11-20T14:08:02;110.05;;;51.80;;
24745;SDS011;12845;52.042;6.838;2022-11-20T14:10:30;34.23;;;24.40;;
24745;SDS011;12845;52.042;6.838;2022-11-20T14:12:56;35.38;;;22.75;;
24745;SDS011;12845;52.042;6.838;2022-11-20T14:15:28;38.58;;;24.90;;
24745;SDS011;12845;52.042;6.838;2022-11-20T14:17:56;36.67;;;23.77;;
24745;SDS011;12845;52.042;6.838;2022-11-20T14:20:23;35.92;;;23.23;;
24745;SDS011;12845;52.042;6.838;2022-11-20T14:22:52;38.30;;;25.98;;
24745;SDS011;12845;52.042;6.838;2022-11-20T14:25:19;39.38;;;27.52;;
24745;SDS011;12845;52.042;6.838;2022-11-20T14:27:50;43.78;;;28.23;;
24745;SDS011;12845;52.042;6.838;2022-11-20T14:30:17;40.33;;;29.20;;
24745;SDS011;12845;52.042;6.838;2022-11-20T14:32:45;41.58;;;29.92;;
24745;SDS011;12845;52.042;6.838;2022-11-20T14:35:18;45.85;;;30.75;;
24745;SDS011;12845;52.042;6.838;2022-11-20T14:37:48;41.92;;;28.17;;
24745;SDS011;12845;52.042;6.838;2022-11-20T14:40:35;42.88;;;25.27;;
24745;SDS011;12845;52.042;6.838;2022-11-20T14:43:01;44.13;;;28.58;;
24745;SDS011;12845;52.042;6.838;2022-11-20T14:45:27;45.67;;;30.73;;
24745;SDS011;12845;52.042;6.838;2022-11-20T14:47:54;47.50;;;31.17;;
24745;SDS011;12845;52.042;6.838;2022-11-20T14:50:26;54.55;;;32.42;;
24745;SDS011;12845;52.042;6.838;2022-11-20T14:52:52;44.15;;;31.05;;
24745;SDS011;12845;52.042;6.838;2022-11-20T14:55:26;52.28;;;33.25;;
24745;SDS011;12845;52.042;6.838;2022-11-20T14:57:58;50.97;;;32.83;;
24745;SDS011;12845;52.042;6.838;2022-11-20T15:00:26;48.53;;;33.08;;
24745;SDS011;12845;52.042;6.838;2022-11-20T15:02:52;51.80;;;32.65;;
24745;SDS011;12845;52.042;6.838;2022-11-20T15:05:20;44.03;;;29.17;;
24745;SDS011;12845;52.042;6.838;2022-11-20T15:08:04;46.53;;;32.05;;
24745;SDS011;12845;52.042;6.838;2022-11-20T15:10:32;43.30;;;31.08;;
24745;SDS011;12845;52.042;6.838;2022-11-20T15:13:02;45.30;;;32.28;;
24745;SDS011;12845;52.042;6.838;2022-11-20T15:15:39;45.97;;;30.52;;
24745;SDS011;12845;52.042;6.838;2022-11-20T15:18:19;46.90;;;30.00;;
24745;SDS011;12845;52.042;6.838;2022-11-20T15:20:47;48.38;;;32.63;;
24745;SDS011;12845;52.042;6.838;2022-11-20T15:23:14;47.97;;;30.85;;
24745;SDS011;12845;52.042;6.838;2022-11-20T15:25:43;45.08;;;30.45;;
24745;SDS011;12845;52.042;6.838;2022-11-20T15:28:19;42.20;;;27.92;;
24745;SDS011;12845;52.042;6.838;2022-11-20T15:30:47;46.88;;;27.35;;
24745;SDS011;12845;52.042;6.838;2022-11-20T15:33:14;41.25;;;26.90;;
24745;SDS011;12845;52.042;6.838;2022-11-20T15:35:39;47.17;;;30.38;;
24745;SDS011;12845;52.042;6.838;2022-11-20T15:38:05;39.33;;;28.42;;
24745;SDS011;12845;52.042;6.838;2022-11-20T15:40:31;42.08;;;26.20;;
24745;SDS011;12845;52.042;6.838;2022-11-20T15:42:56;35.80;;;21.98;;
24745;SDS011;12845;52.042;6.838;2022-11-20T15:45:36;39.97;;;25.52;;
24745;SDS011;12845;52.042;6.838;2022-11-20T15:48:03;44.95;;;26.70;;
24745;SDS011;12845;52.042;6.838;2022-11-20T15:50:33;40.17;;;23.70;;
24745;SDS011;12845;52.042;6.838;2022-11-20T15:53:02;40.85;;;30.20;;
24745;SDS011;12845;52.042;6.838;2022-11-20T15:55:28;45.00;;;30.45;;
24745;SDS011;12845;52.042;6.838;2022-11-20T15:57:53;48.72;;;31.85;;
24745;SDS011;12845;52.042;6.838;2022-11-20T16:00:19;44.85;;;31.40;;
24745;SDS011;12845;52.042;6.838;2022-11-20T16:02:44;45.53;;;30.10;;
24745;SDS011;12845;52.042;6.838;2022-11-20T16:05:11;46.13;;;29.13;;
24745;SDS011;12845;52.042;6.838;2022-11-20T16:07:37;48.03;;;33.10;;
24745;SDS011;12845;52.042;6.838;2022-11-20T16:10:03;47.42;;;32.67;;
24745;SDS011;12845;52.042;6.838;2022-11-20T16:12:28;50.25;;;33.08;;
24745;SDS011;12845;52.042;6.838;2022-11-20T16:15:12;54.50;;;37.53;;
24745;SDS011;12845;52.042;6.838;2022-11-20T16:17:55;49.17;;;34.20;;
24745;SDS011;12845;52.042;6.838;2022-11-20T16:20:21;50.17;;;36.63;;
24745;SDS011;12845;52.042;6.838;2022-11-20T16:22:46;51.67;;;32.42;;